sensor_id;sensor_type;location;lat;lon;timestamp;temperature;humidity
5520;DHT22;2782;52.362;10.012;2023-10-31T00:00:24;20.90;90.60
5520;DHT22;2782;52.362;10.012;2023-10-31T00:01:24;20.90;90.60
5520;DHT22;2782;52.362;10.012;2023-10-31T00:02:26;20.90;90.60
5520;DHT22;2782;52.362;10.012;2023-10-31T00:03:27;20.90;90.60
5520;DHT22;2782;52.362;10.012;2023-10-31T00:04:28;20.90;90.60
5520;DHT22;2782;52.362;10.012;2023-10-31T00:05:29;20.90;90.70
5520;DHT22;2782;52.362;10.012;2023-10-31T00:06:31;20.90;90.60
5520;DHT22;2782;52.362;10.012;2023-10-31T00:07:31;20.90;90.60
5520;DHT22;2782;52.362;10.012;2023-10-31T00:08:33;20.90;90.60
5520;DHT22;2782;52.362;10.012;2023-10-31T00:09:34;20.90;90.60
5520;DHT22;2782;52.362;10.012;2023-10-31T00:10:35;20.90;90.60
5520;DHT22;2782;52.362;10.012;2023-10-31T00:11:36;20.90;90.60
5520;DHT22;2782;52.362;10.012;2023-10-31T00:12:38;20.90;90.60
5520;DHT22;2782;52.362;10.012;2023-10-31T00:13:39;20.90;90.60
5520;DHT22;2782;52.362;10.012;2023-10-31T00:14:41;20.90;90.70
5520;DHT22;2782;52.362;10.012;2023-10-31T00:15:43;20.90;90.80
5520;DHT22;2782;52.362;10.012;2023-10-31T00:16:44;20.90;90.70
5520;DHT22;2782;52.362;10.012;2023-10-31T00:17:45;20.90;90.60
5520;DHT22;2782;52.362;10.012;2023-10-31T00:18:47;20.90;90.60
5520;DHT22;2782;52.362;10.012;2023-10-31T00:19:47;20.90;90.70
5520;DHT22;2782;52.362;10.012;2023-10-31T00:20:49;20.80;90.60
5520;DHT22;2782;52.362;10.012;2023-10-31T00:21:50;20.90;90.60
5520;DHT22;2782;52.362;10.012;2023-10-31T00:22:52;20.80;90.60
5520;DHT22;2782;52.362;10.012;2023-10-31T00:23:52;20.80;90.60
5520;DHT22;2782;52.362;10.012;2023-10-31T00:24:54;20.80;90.60
5520;DHT22;2782;52.362;10.012;2023-10-31T00:25:55;20.90;90.60
5520;DHT22;2782;52.362;10.012;2023-10-31T00:26:56;20.80;90.60
5520;DHT22;2782;52.362;10.012;2023-10-31T00:27:57;20.80;90.60
5520;DHT22;2782;52.362;10.012;2023-10-31T00:28:59;20.80;90.60
5520;DHT22;2782;52.362;10.012;2023-10-31T00:29:59;20.80;90.60
5520;DHT22;2782;52.362;10.012;2023-10-31T00:31:03;20.80;90.60
5520;DHT22;2782;52.362;10.012;2023-10-31T00:32:04;20.80;90.60
5520;DHT22;2782;52.362;10.012;2023-10-31T00:33:06;20.80;90.60
5520;DHT22;2782;52.362;10.012;2023-10-31T00:34:07;20.80;90.60
5520;DHT22;2782;52.362;10.012;2023-10-31T00:35:08;20.80;90.60
5520;DHT22;2782;52.362;10.012;2023-10-31T00:36:13;20.80;90.60
5520;DHT22;2782;52.362;10.012;2023-10-31T00:37:13;20.80;90.60
5520;DHT22;2782;52.362;10.012;2023-10-31T00:38:15;20.80;90.60
5520;DHT22;2782;52.362;10.012;2023-10-31T00:39:16;20.80;90.60
5520;DHT22;2782;52.362;10.012;2023-10-31T00:40:18;20.80;90.60
5520;DHT22;2782;52.362;10.012;2023-10-31T00:41:19;20.80;90.60
5520;DHT22;2782;52.362;10.012;2023-10-31T00:42:20;20.80;90.60
5520;DHT22;2782;52.362;10.012;2023-10-31T00:43:22;20.80;90.60
5520;DHT22;2782;52.362;10.012;2023-10-31T00:44:24;20.80;90.60
5520;DHT22;2782;52.362;10.012;2023-10-31T00:45:25;20.80;90.60
5520;DHT22;2782;52.362;10.012;2023-10-31T00:46:28;20.80;90.60
5520;DHT22;2782;52.362;10.012;2023-10-31T00:47:29;20.80;90.60
5520;DHT22;2782;52.362;10.012;2023-10-31T00:48:30;20.80;90.60
5520;DHT22;2782;52.362;10.012;2023-10-31T00:49:36;20.80;90.60
5520;DHT22;2782;52.362;10.012;2023-10-31T00:50:38;20.80;90.60
5520;DHT22;2782;52.362;10.012;2023-10-31T00:51:38;20.80;90.60
5520;DHT22;2782;52.362;10.012;2023-10-31T00:52:40;20.80;90.60
5520;DHT22;2782;52.362;10.012;2023-10-31T00:53:41;20.80;90.60
5520;DHT22;2782;52.362;10.012;2023-10-31T00:54:41;20.80;90.60
5520;DHT22;2782;52.362;10.012;2023-10-31T00:55:43;20.70;90.50
5520;DHT22;2782;52.362;10.012;2023-10-31T00:56:44;20.70;90.50
5520;DHT22;2782;52.362;10.012;2023-10-31T00:57:46;20.80;90.60
5520;DHT22;2782;52.362;10.012;2023-10-31T00:58:47;20.70;90.50
5520;DHT22;2782;52.362;10.012;2023-10-31T00:59:48;20.70;90.50
5520;DHT22;2782;52.362;10.012;2023-10-31T01:00:49;20.70;90.50
5520;DHT22;2782;52.362;10.012;2023-10-31T01:01:52;20.70;90.50
5520;DHT22;2782;52.362;10.012;2023-10-31T01:02:53;20.70;90.50
5520;DHT22;2782;52.362;10.012;2023-10-31T01:03:54;20.70;90.50
5520;DHT22;2782;52.362;10.012;2023-10-31T01:04:55;20.70;90.50
5520;DHT22;2782;52.362;10.012;2023-10-31T01:05:57;20.70;90.60
5520;DHT22;2782;52.362;10.012;2023-10-31T01:06:57;20.70;90.60
5520;DHT22;2782;52.362;10.012;2023-10-31T01:07:59;20.70;90.50
5520;DHT22;2782;52.362;10.012;2023-10-31T01:09:00;20.70;90.50
5520;DHT22;2782;52.362;10.012;2023-10-31T01:10:02;20.70;90.50
5520;DHT22;2782;52.362;10.012;2023-10-31T01:11:03;20.70;90.50
5520;DHT22;2782;52.362;10.012;2023-10-31T01:12:05;20.70;90.60
5520;DHT22;2782;52.362;10.012;2023-10-31T01:13:06;20.70;90.50
5520;DHT22;2782;52.362;10.012;2023-10-31T01:14:07;20.70;90.50
5520;DHT22;2782;52.362;10.012;2023-10-31T01:15:09;20.70;90.50
5520;DHT22;2782;52.362;10.012;2023-10-31T01:16:10;20.70;90.50
5520;DHT22;2782;52.362;10.012;2023-10-31T01:17:13;20.70;90.50
5520;DHT22;2782;52.362;10.012;2023-10-31T01:18:14;20.70;90.50
5520;DHT22;2782;52.362;10.012;2023-10-31T01:19:15;20.70;90.50
5520;DHT22;2782;52.362;10.012;2023-10-31T01:20:16;20.70;90.50
5520;DHT22;2782;52.362;10.012;2023-10-31T01:21:18;20.70;90.50
5520;DHT22;2782;52.362;10.012;2023-10-31T01:22:19;20.70;90.60
5520;DHT22;2782;52.362;10.012;2023-10-31T01:23:20;20.70;90.50
5520;DHT22;2782;52.362;10.012;2023-10-31T01:24:21;20.70;90.50
5520;DHT22;2782;52.362;10.012;2023-10-31T01:25:23;20.70;90.50
5520;DHT22;2782;52.362;10.012;2023-10-31T01:26:24;20.70;90.50
5520;DHT22;2782;52.362;10.012;2023-10-31T01:27:26;20.60;90.50
5520;DHT22;2782;52.362;10.012;2023-10-31T01:28:26;20.70;90.60
5520;DHT22;2782;52.362;10.012;2023-10-31T01:29:29;20.70;90.50
5520;DHT22;2782;52.362;10.012;2023-10-31T01:30:29;20.70;90.50
5520;DHT22;2782;52.362;10.012;2023-10-31T01:31:30;20.70;90.50
5520;DHT22;2782;52.362;10.012;2023-10-31T01:32:34;20.70;90.60
5520;DHT22;2782;52.362;10.012;2023-10-31T01:33:35;20.70;90.60
5520;DHT22;2782;52.362;10.012;2023-10-31T01:34:36;20.60;90.50
5520;DHT22;2782;52.362;10.012;2023-10-31T01:35:37;20.60;90.50
5520;DHT22;2782;52.362;10.012;2023-10-31T01:36:39;20.60;90.50
5520;DHT22;2782;52.362;10.012;2023-10-31T01:37:39;20.60;90.50
5520;DHT22;2782;52.362;10.012;2023-10-31T01:38:40;20.60;90.50
5520;DHT22;2782;52.362;10.012;2023-10-31T01:39:42;20.60;90.50
5520;DHT22;2782;52.362;10.012;2023-10-31T01:40:43;20.60;90.50
5520;DHT22;2782;52.362;10.012;2023-10-31T01:41:46;20.60;90.50
5520;DHT22;2782;52.362;10.012;2023-10-31T01:42:47;20.60;90.50
5520;DHT22;2782;52.362;10.012;2023-10-31T01:43:48;20.60;90.50
5520;DHT22;2782;52.362;10.012;2023-10-31T01:44:49;20.60;90.50
5520;DHT22;2782;52.362;10.012;2023-10-31T01:45:50;20.60;90.50
5520;DHT22;2782;52.362;10.012;2023-10-31T01:46:51;20.60;90.50
5520;DHT22;2782;52.362;10.012;2023-10-31T01:47:54;20.60;90.50
5520;DHT22;2782;52.362;10.012;2023-10-31T01:48:54;20.60;90.50
5520;DHT22;2782;52.362;10.012;2023-10-31T01:49:56;20.60;90.50
5520;DHT22;2782;52.362;10.012;2023-10-31T01:50:58;20.60;90.50
5520;DHT22;2782;52.362;10.012;2023-10-31T01:52:00;20.60;90.50
5520;DHT22;2782;52.362;10.012;2023-10-31T01:53:02;20.60;90.50
5520;DHT22;2782;52.362;10.012;2023-10-31T01:54:04;20.60;90.50
5520;DHT22;2782;52.362;10.012;2023-10-31T01:55:05;20.60;90.50
5520;DHT22;2782;52.362;10.012;2023-10-31T01:56:07;20.60;90.50
5520;DHT22;2782;52.362;10.012;2023-10-31T01:57:08;20.60;90.50
5520;DHT22;2782;52.362;10.012;2023-10-31T01:58:10;20.60;90.50
5520;DHT22;2782;52.362;10.012;2023-10-31T01:59:11;20.60;90.50
5520;DHT22;2782;52.362;10.012;2023-10-31T02:00:14;20.60;90.50
5520;DHT22;2782;52.362;10.012;2023-10-31T02:01:15;20.60;90.50
5520;DHT22;2782;52.362;10.012;2023-10-31T02:05:26;20.60;90.50
5520;DHT22;2782;52.362;10.012;2023-10-31T02:06:29;20.50;90.50
5520;DHT22;2782;52.362;10.012;2023-10-31T02:07:30;20.50;90.50
5520;DHT22;2782;52.362;10.012;2023-10-31T02:08:32;20.50;90.80
5520;DHT22;2782;52.362;10.012;2023-10-31T02:09:33;20.50;90.50
5520;DHT22;2782;52.362;10.012;2023-10-31T02:10:35;20.50;90.50
5520;DHT22;2782;52.362;10.012;2023-10-31T02:11:35;20.50;90.50
5520;DHT22;2782;52.362;10.012;2023-10-31T02:12:37;20.50;90.50
5520;DHT22;2782;52.362;10.012;2023-10-31T02:13:38;20.50;90.50
5520;DHT22;2782;52.362;10.012;2023-10-31T02:14:40;20.50;90.50
5520;DHT22;2782;52.362;10.012;2023-10-31T02:15:40;20.50;90.80
5520;DHT22;2782;52.362;10.012;2023-10-31T02:16:42;20.50;90.50
5520;DHT22;2782;52.362;10.012;2023-10-31T02:17:43;20.50;90.50
5520;DHT22;2782;52.362;10.012;2023-10-31T02:18:44;20.50;90.50
5520;DHT22;2782;52.362;10.012;2023-10-31T02:19:45;20.50;90.50
5520;DHT22;2782;52.362;10.012;2023-10-31T02:20:48;20.50;90.50
5520;DHT22;2782;52.362;10.012;2023-10-31T02:21:50;20.50;90.50
5520;DHT22;2782;52.362;10.012;2023-10-31T02:22:52;20.50;90.50
5520;DHT22;2782;52.362;10.012;2023-10-31T02:23:57;20.50;90.50
5520;DHT22;2782;52.362;10.012;2023-10-31T02:25:00;20.50;90.50
5520;DHT22;2782;52.362;10.012;2023-10-31T02:26:01;20.50;90.50
5520;DHT22;2782;52.362;10.012;2023-10-31T02:27:04;20.50;90.50
5520;DHT22;2782;52.362;10.012;2023-10-31T02:28:04;20.50;90.50
5520;DHT22;2782;52.362;10.012;2023-10-31T02:29:06;20.50;90.50
5520;DHT22;2782;52.362;10.012;2023-10-31T02:30:08;20.50;90.50
5520;DHT22;2782;52.362;10.012;2023-10-31T02:31:10;20.50;90.50
5520;DHT22;2782;52.362;10.012;2023-10-31T02:32:10;20.50;90.50
5520;DHT22;2782;52.362;10.012;2023-10-31T02:33:12;20.40;90.50
5520;DHT22;2782;52.362;10.012;2023-10-31T02:34:14;20.40;90.50
5520;DHT22;2782;52.362;10.012;2023-10-31T02:35:16;20.40;90.40
5520;DHT22;2782;52.362;10.012;2023-10-31T02:36:17;20.40;90.40
5520;DHT22;2782;52.362;10.012;2023-10-31T02:37:20;20.50;90.50
5520;DHT22;2782;52.362;10.012;2023-10-31T02:38:21;20.50;90.50
5520;DHT22;2782;52.362;10.012;2023-10-31T02:39:22;20.40;90.40
5520;DHT22;2782;52.362;10.012;2023-10-31T02:40:23;20.40;90.40
5520;DHT22;2782;52.362;10.012;2023-10-31T02:41:25;20.40;90.40
5520;DHT22;2782;52.362;10.012;2023-10-31T02:42:25;20.40;90.40
5520;DHT22;2782;52.362;10.012;2023-10-31T02:43:27;20.40;90.40
5520;DHT22;2782;52.362;10.012;2023-10-31T02:44:28;20.40;90.40
5520;DHT22;2782;52.362;10.012;2023-10-31T02:45:30;20.40;90.40
5520;DHT22;2782;52.362;10.012;2023-10-31T02:46:30;20.40;90.40
5520;DHT22;2782;52.362;10.012;2023-10-31T02:47:31;20.40;90.40
5520;DHT22;2782;52.362;10.012;2023-10-31T02:48:33;20.40;90.40
5520;DHT22;2782;52.362;10.012;2023-10-31T02:49:39;20.40;90.40
5520;DHT22;2782;52.362;10.012;2023-10-31T02:50:41;20.40;90.40
5520;DHT22;2782;52.362;10.012;2023-10-31T02:51:41;20.40;90.40
5520;DHT22;2782;52.362;10.012;2023-10-31T02:52:44;20.40;90.40
5520;DHT22;2782;52.362;10.012;2023-10-31T02:53:45;20.40;90.40
5520;DHT22;2782;52.362;10.012;2023-10-31T02:54:49;20.40;90.40
5520;DHT22;2782;52.362;10.012;2023-10-31T02:55:49;20.40;90.40
5520;DHT22;2782;52.362;10.012;2023-10-31T02:56:51;20.40;90.40
5520;DHT22;2782;52.362;10.012;2023-10-31T02:57:52;20.40;90.40
5520;DHT22;2782;52.362;10.012;2023-10-31T02:58:53;20.40;90.40
5520;DHT22;2782;52.362;10.012;2023-10-31T02:59:54;20.40;90.40
5520;DHT22;2782;52.362;10.012;2023-10-31T03:00:56;20.40;90.50
5520;DHT22;2782;52.362;10.012;2023-10-31T03:01:57;20.40;90.50
5520;DHT22;2782;52.362;10.012;2023-10-31T03:02:59;20.40;90.50
5520;DHT22;2782;52.362;10.012;2023-10-31T03:03:59;20.40;90.50
5520;DHT22;2782;52.362;10.012;2023-10-31T03:05:01;20.40;90.50
5520;DHT22;2782;52.362;10.012;2023-10-31T03:06:03;20.40;90.50
5520;DHT22;2782;52.362;10.012;2023-10-31T03:07:05;20.40;90.50
5520;DHT22;2782;52.362;10.012;2023-10-31T03:08:07;20.40;90.50
5520;DHT22;2782;52.362;10.012;2023-10-31T03:09:10;20.40;90.50
5520;DHT22;2782;52.362;10.012;2023-10-31T03:10:11;20.40;90.50
5520;DHT22;2782;52.362;10.012;2023-10-31T03:11:21;20.40;90.50
5520;DHT22;2782;52.362;10.012;2023-10-31T03:12:21;20.30;90.50
5520;DHT22;2782;52.362;10.012;2023-10-31T03:13:24;20.40;90.50
5520;DHT22;2782;52.362;10.012;2023-10-31T03:14:24;20.30;90.50
5520;DHT22;2782;52.362;10.012;2023-10-31T03:15:26;20.40;90.50
5520;DHT22;2782;52.362;10.012;2023-10-31T03:16:27;20.40;90.50
5520;DHT22;2782;52.362;10.012;2023-10-31T03:17:29;20.40;90.50
5520;DHT22;2782;52.362;10.012;2023-10-31T03:18:30;20.40;90.50
5520;DHT22;2782;52.362;10.012;2023-10-31T03:19:31;20.40;90.50
5520;DHT22;2782;52.362;10.012;2023-10-31T03:20:32;20.40;90.50
5520;DHT22;2782;52.362;10.012;2023-10-31T03:21:33;20.40;90.50
5520;DHT22;2782;52.362;10.012;2023-10-31T03:22:34;20.40;90.50
5520;DHT22;2782;52.362;10.012;2023-10-31T03:23:36;20.40;90.50
5520;DHT22;2782;52.362;10.012;2023-10-31T03:24:37;20.40;90.50
5520;DHT22;2782;52.362;10.012;2023-10-31T03:25:39;20.40;90.50
5520;DHT22;2782;52.362;10.012;2023-10-31T03:26:40;20.40;90.50
5520;DHT22;2782;52.362;10.012;2023-10-31T03:27:41;20.40;90.50
5520;DHT22;2782;52.362;10.012;2023-10-31T03:28:43;20.30;90.50
5520;DHT22;2782;52.362;10.012;2023-10-31T03:29:44;20.40;90.50
5520;DHT22;2782;52.362;10.012;2023-10-31T03:30:46;20.40;90.50
5520;DHT22;2782;52.362;10.012;2023-10-31T03:31:48;20.30;90.50
5520;DHT22;2782;52.362;10.012;2023-10-31T03:32:49;20.30;90.50
5520;DHT22;2782;52.362;10.012;2023-10-31T03:33:50;20.30;90.50
5520;DHT22;2782;52.362;10.012;2023-10-31T03:34:52;20.30;90.50
5520;DHT22;2782;52.362;10.012;2023-10-31T03:35:53;20.30;90.50
5520;DHT22;2782;52.362;10.012;2023-10-31T03:36:54;20.30;90.50
5520;DHT22;2782;52.362;10.012;2023-10-31T03:37:56;20.30;90.50
5520;DHT22;2782;52.362;10.012;2023-10-31T03:38:58;20.30;90.50
5520;DHT22;2782;52.362;10.012;2023-10-31T03:39:59;20.30;90.50
5520;DHT22;2782;52.362;10.012;2023-10-31T03:41:00;20.30;90.50
5520;DHT22;2782;52.362;10.012;2023-10-31T03:42:02;20.30;90.80
5520;DHT22;2782;52.362;10.012;2023-10-31T03:43:02;20.30;90.50
5520;DHT22;2782;52.362;10.012;2023-10-31T03:44:04;20.30;90.80
5520;DHT22;2782;52.362;10.012;2023-10-31T03:45:06;20.30;90.50
5520;DHT22;2782;52.362;10.012;2023-10-31T03:46:08;20.30;90.50
5520;DHT22;2782;52.362;10.012;2023-10-31T03:47:09;20.30;90.50
5520;DHT22;2782;52.362;10.012;2023-10-31T03:48:11;20.30;90.50
5520;DHT22;2782;52.362;10.012;2023-10-31T03:49:11;20.30;90.50
5520;DHT22;2782;52.362;10.012;2023-10-31T03:50:13;20.30;90.50
5520;DHT22;2782;52.362;10.012;2023-10-31T03:51:14;20.30;90.50
5520;DHT22;2782;52.362;10.012;2023-10-31T03:52:15;20.30;90.50
5520;DHT22;2782;52.362;10.012;2023-10-31T03:53:16;20.30;90.40
5520;DHT22;2782;52.362;10.012;2023-10-31T03:54:19;20.30;90.40
5520;DHT22;2782;52.362;10.012;2023-10-31T03:55:20;20.30;90.30
5520;DHT22;2782;52.362;10.012;2023-10-31T03:56:20;20.30;90.30
5520;DHT22;2782;52.362;10.012;2023-10-31T03:57:22;20.30;90.30
5520;DHT22;2782;52.362;10.012;2023-10-31T03:58:23;20.30;90.30
5520;DHT22;2782;52.362;10.012;2023-10-31T03:59:24;20.30;90.30
5520;DHT22;2782;52.362;10.012;2023-10-31T04:00:25;20.30;90.70
5520;DHT22;2782;52.362;10.012;2023-10-31T04:01:26;20.30;90.30
5520;DHT22;2782;52.362;10.012;2023-10-31T04:02:28;20.30;90.60
5520;DHT22;2782;52.362;10.012;2023-10-31T04:03:28;20.30;90.30
5520;DHT22;2782;52.362;10.012;2023-10-31T04:04:30;20.30;90.30
5520;DHT22;2782;52.362;10.012;2023-10-31T04:05:31;20.30;90.30
5520;DHT22;2782;52.362;10.012;2023-10-31T04:06:32;20.30;90.30
5520;DHT22;2782;52.362;10.012;2023-10-31T04:07:33;20.30;90.30
5520;DHT22;2782;52.362;10.012;2023-10-31T04:08:34;20.30;90.30
5520;DHT22;2782;52.362;10.012;2023-10-31T04:09:37;20.30;90.30
5520;DHT22;2782;52.362;10.012;2023-10-31T04:10:37;20.30;90.30
5520;DHT22;2782;52.362;10.012;2023-10-31T04:11:39;20.30;90.30
5520;DHT22;2782;52.362;10.012;2023-10-31T04:12:41;20.20;90.20
5520;DHT22;2782;52.362;10.012;2023-10-31T04:13:43;20.20;90.20
5520;DHT22;2782;52.362;10.012;2023-10-31T04:14:44;20.20;90.20
5520;DHT22;2782;52.362;10.012;2023-10-31T04:15:45;20.20;90.20
5520;DHT22;2782;52.362;10.012;2023-10-31T04:16:47;20.20;90.20
5520;DHT22;2782;52.362;10.012;2023-10-31T04:17:47;20.20;90.20
5520;DHT22;2782;52.362;10.012;2023-10-31T04:18:49;20.20;90.20
5520;DHT22;2782;52.362;10.012;2023-10-31T04:19:50;20.20;90.20
5520;DHT22;2782;52.362;10.012;2023-10-31T04:20:51;20.20;90.20
5520;DHT22;2782;52.362;10.012;2023-10-31T04:21:53;20.20;90.20
5520;DHT22;2782;52.362;10.012;2023-10-31T04:22:55;20.20;90.20
5520;DHT22;2782;52.362;10.012;2023-10-31T04:23:55;20.20;90.20
5520;DHT22;2782;52.362;10.012;2023-10-31T04:24:58;20.20;90.20
5520;DHT22;2782;52.362;10.012;2023-10-31T04:25:59;20.20;90.20
5520;DHT22;2782;52.362;10.012;2023-10-31T04:27:00;20.20;90.10
5520;DHT22;2782;52.362;10.012;2023-10-31T04:28:01;20.20;90.10
5520;DHT22;2782;52.362;10.012;2023-10-31T04:29:03;20.20;90.10
5520;DHT22;2782;52.362;10.012;2023-10-31T04:30:05;20.20;90.10
5520;DHT22;2782;52.362;10.012;2023-10-31T04:31:07;20.20;90.10
5520;DHT22;2782;52.362;10.012;2023-10-31T04:32:07;20.20;90.10
5520;DHT22;2782;52.362;10.012;2023-10-31T04:33:09;20.20;90.10
5520;DHT22;2782;52.362;10.012;2023-10-31T04:34:09;20.20;90.10
5520;DHT22;2782;52.362;10.012;2023-10-31T04:35:11;20.20;90.10
5520;DHT22;2782;52.362;10.012;2023-10-31T04:36:12;20.20;90.10
5520;DHT22;2782;52.362;10.012;2023-10-31T04:37:13;20.20;90.10
5520;DHT22;2782;52.362;10.012;2023-10-31T04:38:14;20.20;90.10
5520;DHT22;2782;52.362;10.012;2023-10-31T04:39:16;20.20;90.10
5520;DHT22;2782;52.362;10.012;2023-10-31T04:40:18;20.20;90.10
5520;DHT22;2782;52.362;10.012;2023-10-31T04:41:20;20.20;90.10
5520;DHT22;2782;52.362;10.012;2023-10-31T04:42:21;20.20;90.10
5520;DHT22;2782;52.362;10.012;2023-10-31T04:43:23;20.20;90.10
5520;DHT22;2782;52.362;10.012;2023-10-31T04:44:23;20.20;90.10
5520;DHT22;2782;52.362;10.012;2023-10-31T04:45:25;20.20;90.10
5520;DHT22;2782;52.362;10.012;2023-10-31T04:46:26;20.20;90.10
5520;DHT22;2782;52.362;10.012;2023-10-31T04:47:27;20.20;90.10
5520;DHT22;2782;52.362;10.012;2023-10-31T04:48:29;20.20;90.40
5520;DHT22;2782;52.362;10.012;2023-10-31T04:49:30;20.20;90.10
5520;DHT22;2782;52.362;10.012;2023-10-31T04:50:34;20.20;90.10
5520;DHT22;2782;52.362;10.012;2023-10-31T04:51:35;20.10;90.10
5520;DHT22;2782;52.362;10.012;2023-10-31T04:52:37;20.10;90.10
5520;DHT22;2782;52.362;10.012;2023-10-31T04:53:37;20.20;90.10
5520;DHT22;2782;52.362;10.012;2023-10-31T04:54:40;20.10;90.10
5520;DHT22;2782;52.362;10.012;2023-10-31T04:55:42;20.10;90.10
5520;DHT22;2782;52.362;10.012;2023-10-31T04:56:43;20.10;90.10
5520;DHT22;2782;52.362;10.012;2023-10-31T04:57:44;20.10;90.40
5520;DHT22;2782;52.362;10.012;2023-10-31T04:58:45;20.10;90.10
5520;DHT22;2782;52.362;10.012;2023-10-31T04:59:46;20.10;90.10
5520;DHT22;2782;52.362;10.012;2023-10-31T05:00:47;20.10;90.00
5520;DHT22;2782;52.362;10.012;2023-10-31T05:01:49;20.10;90.10
5520;DHT22;2782;52.362;10.012;2023-10-31T05:02:50;20.10;90.10
5520;DHT22;2782;52.362;10.012;2023-10-31T05:03:52;20.10;90.10
5520;DHT22;2782;52.362;10.012;2023-10-31T05:04:53;20.10;90.20
5520;DHT22;2782;52.362;10.012;2023-10-31T05:05:55;20.10;90.20
5520;DHT22;2782;52.362;10.012;2023-10-31T05:06:55;20.10;90.20
5520;DHT22;2782;52.362;10.012;2023-10-31T05:07:57;20.10;90.20
5520;DHT22;2782;52.362;10.012;2023-10-31T05:08:58;20.10;90.20
5520;DHT22;2782;52.362;10.012;2023-10-31T05:09:59;20.10;90.20
5520;DHT22;2782;52.362;10.012;2023-10-31T05:11:02;20.10;90.20
5520;DHT22;2782;52.362;10.012;2023-10-31T05:12:03;20.10;90.30
5520;DHT22;2782;52.362;10.012;2023-10-31T05:13:05;20.10;90.30
5520;DHT22;2782;52.362;10.012;2023-10-31T05:14:08;20.10;90.30
5520;DHT22;2782;52.362;10.012;2023-10-31T05:15:10;20.10;90.40
5520;DHT22;2782;52.362;10.012;2023-10-31T05:16:11;20.10;90.30
5520;DHT22;2782;52.362;10.012;2023-10-31T05:17:13;20.10;90.40
5520;DHT22;2782;52.362;10.012;2023-10-31T05:18:14;20.10;90.30
5520;DHT22;2782;52.362;10.012;2023-10-31T05:19:16;20.10;90.30
5520;DHT22;2782;52.362;10.012;2023-10-31T05:20:16;20.10;90.30
5520;DHT22;2782;52.362;10.012;2023-10-31T05:21:19;20.10;90.40
5520;DHT22;2782;52.362;10.012;2023-10-31T05:22:21;20.10;90.40
5520;DHT22;2782;52.362;10.012;2023-10-31T05:23:22;20.10;90.40
5520;DHT22;2782;52.362;10.012;2023-10-31T05:24:23;20.10;90.40
5520;DHT22;2782;52.362;10.012;2023-10-31T05:25:25;20.10;90.40
5520;DHT22;2782;52.362;10.012;2023-10-31T05:26:27;20.10;90.40
5520;DHT22;2782;52.362;10.012;2023-10-31T05:27:28;20.10;90.40
5520;DHT22;2782;52.362;10.012;2023-10-31T05:28:30;20.10;90.40
5520;DHT22;2782;52.362;10.012;2023-10-31T05:29:31;20.10;90.40
5520;DHT22;2782;52.362;10.012;2023-10-31T05:30:32;20.10;90.40
5520;DHT22;2782;52.362;10.012;2023-10-31T05:31:33;20.10;90.40
5520;DHT22;2782;52.362;10.012;2023-10-31T05:32:35;20.10;90.40
5520;DHT22;2782;52.362;10.012;2023-10-31T05:33:36;20.10;90.40
5520;DHT22;2782;52.362;10.012;2023-10-31T05:34:37;20.10;90.40
5520;DHT22;2782;52.362;10.012;2023-10-31T05:35:38;20.10;90.40
5520;DHT22;2782;52.362;10.012;2023-10-31T05:36:40;20.10;90.40
5520;DHT22;2782;52.362;10.012;2023-10-31T05:37:41;20.10;90.50
5520;DHT22;2782;52.362;10.012;2023-10-31T05:38:42;20.10;90.50
5520;DHT22;2782;52.362;10.012;2023-10-31T05:39:43;20.10;90.50
5520;DHT22;2782;52.362;10.012;2023-10-31T05:40:45;20.10;90.40
5520;DHT22;2782;52.362;10.012;2023-10-31T05:41:48;20.10;90.40
5520;DHT22;2782;52.362;10.012;2023-10-31T05:42:49;20.10;90.40
5520;DHT22;2782;52.362;10.012;2023-10-31T05:43:50;20.10;90.50
5520;DHT22;2782;52.362;10.012;2023-10-31T05:44:52;20.10;90.50
5520;DHT22;2782;52.362;10.012;2023-10-31T05:45:53;20.10;90.50
5520;DHT22;2782;52.362;10.012;2023-10-31T05:46:54;20.10;90.50
5520;DHT22;2782;52.362;10.012;2023-10-31T05:47:55;20.10;90.50
5520;DHT22;2782;52.362;10.012;2023-10-31T05:48:57;20.10;90.50
5520;DHT22;2782;52.362;10.012;2023-10-31T05:49:57;20.10;90.50
5520;DHT22;2782;52.362;10.012;2023-10-31T05:50:58;20.10;90.50
5520;DHT22;2782;52.362;10.012;2023-10-31T05:52:00;20.10;90.50
5520;DHT22;2782;52.362;10.012;2023-10-31T05:53:00;20.10;90.50
5520;DHT22;2782;52.362;10.012;2023-10-31T05:54:02;20.10;90.50
5520;DHT22;2782;52.362;10.012;2023-10-31T05:55:04;20.10;90.50
5520;DHT22;2782;52.362;10.012;2023-10-31T05:56:07;20.10;90.50
5520;DHT22;2782;52.362;10.012;2023-10-31T05:57:09;20.10;90.50
5520;DHT22;2782;52.362;10.012;2023-10-31T05:58:10;20.10;90.50
5520;DHT22;2782;52.362;10.012;2023-10-31T05:59:13;20.10;90.50
5520;DHT22;2782;52.362;10.012;2023-10-31T06:00:16;20.10;90.50
5520;DHT22;2782;52.362;10.012;2023-10-31T06:01:17;20.10;90.50
5520;DHT22;2782;52.362;10.012;2023-10-31T06:02:19;20.10;90.50
5520;DHT22;2782;52.362;10.012;2023-10-31T06:03:20;20.10;90.50
5520;DHT22;2782;52.362;10.012;2023-10-31T06:04:21;20.10;90.50
5520;DHT22;2782;52.362;10.012;2023-10-31T06:05:22;20.10;90.50
5520;DHT22;2782;52.362;10.012;2023-10-31T06:06:24;20.10;90.50
5520;DHT22;2782;52.362;10.012;2023-10-31T06:07:25;20.10;90.50
5520;DHT22;2782;52.362;10.012;2023-10-31T06:08:26;20.10;90.40
5520;DHT22;2782;52.362;10.012;2023-10-31T06:09:29;20.10;90.40
5520;DHT22;2782;52.362;10.012;2023-10-31T06:10:29;20.10;90.40
5520;DHT22;2782;52.362;10.012;2023-10-31T06:11:31;20.10;90.40
5520;DHT22;2782;52.362;10.012;2023-10-31T06:12:33;20.10;90.50
5520;DHT22;2782;52.362;10.012;2023-10-31T06:13:35;20.10;90.50
5520;DHT22;2782;52.362;10.012;2023-10-31T06:14:37;20.10;90.50
5520;DHT22;2782;52.362;10.012;2023-10-31T06:15:38;20.00;90.40
5520;DHT22;2782;52.362;10.012;2023-10-31T06:16:40;20.10;90.70
5520;DHT22;2782;52.362;10.012;2023-10-31T06:17:42;20.10;90.40
5520;DHT22;2782;52.362;10.012;2023-10-31T06:18:43;20.10;90.40
5520;DHT22;2782;52.362;10.012;2023-10-31T06:19:45;20.10;90.40
5520;DHT22;2782;52.362;10.012;2023-10-31T06:20:47;20.10;90.40
5520;DHT22;2782;52.362;10.012;2023-10-31T06:21:49;20.10;90.50
5520;DHT22;2782;52.362;10.012;2023-10-31T06:22:50;20.10;90.50
5520;DHT22;2782;52.362;10.012;2023-10-31T06:23:51;20.10;90.40
5520;DHT22;2782;52.362;10.012;2023-10-31T06:24:52;20.10;90.40
5520;DHT22;2782;52.362;10.012;2023-10-31T06:25:54;20.10;90.40
5520;DHT22;2782;52.362;10.012;2023-10-31T06:26:55;20.10;90.40
5520;DHT22;2782;52.362;10.012;2023-10-31T06:27:58;20.10;90.40
5520;DHT22;2782;52.362;10.012;2023-10-31T06:28:58;20.10;90.40
5520;DHT22;2782;52.362;10.012;2023-10-31T06:30:00;20.10;90.40
5520;DHT22;2782;52.362;10.012;2023-10-31T06:31:01;20.10;90.40
5520;DHT22;2782;52.362;10.012;2023-10-31T06:32:03;20.10;90.40
5520;DHT22;2782;52.362;10.012;2023-10-31T06:33:03;20.10;90.40
5520;DHT22;2782;52.362;10.012;2023-10-31T06:34:07;20.10;90.40
5520;DHT22;2782;52.362;10.012;2023-10-31T06:35:08;20.10;90.30
5520;DHT22;2782;52.362;10.012;2023-10-31T06:36:10;20.10;90.30
5520;DHT22;2782;52.362;10.012;2023-10-31T06:37:11;20.10;90.40